createdAt,value
2018-05-26T00:00:13.042Z,11.02
2018-05-26T00:02:42.097Z,9.60
2018-05-26T00:05:11.155Z,11.25
2018-05-26T00:07:40.206Z,11.23
2018-05-26T00:10:09.272Z,11.37
2018-05-26T00:12:38.313Z,14.65
2018-05-26T00:15:07.522Z,13.47
2018-05-26T00:17:36.922Z,12.33
2018-05-26T00:25:21.405Z,15.05
2018-05-26T00:30:27.298Z,15.77
2018-05-26T00:32:56.350Z,16.42
2018-05-26T00:35:25.423Z,13.80
2018-05-26T00:37:54.489Z,11.93
2018-05-26T00:40:23.604Z,10.70
2018-05-26T00:42:52.644Z,10.30
2018-05-26T00:45:21.736Z,12.25
2018-05-26T00:50:28.537Z,14.23
2018-05-26T00:52:57.655Z,12.10
2018-05-26T00:55:27.626Z,11.13
2018-05-26T00:57:56.788Z,11.00
2018-05-26T01:00:27.987Z,11.63
2018-05-26T01:02:57.046Z,13.77
2018-05-26T01:05:26.147Z,12.43
2018-05-26T01:07:55.305Z,15.33
2018-05-26T01:10:25.374Z,17.53
2018-05-26T01:12:54.453Z,15.63
2018-05-26T01:17:59.361Z,16.00
2018-05-26T01:20:28.428Z,13.63
2018-05-26T01:22:57.487Z,13.27
2018-05-26T01:25:26.735Z,11.60
2018-05-26T01:27:55.922Z,11.47
2018-05-26T01:30:25.871Z,11.63
2018-05-26T01:32:54.925Z,12.80
2018-05-26T01:35:23.994Z,14.95
2018-05-26T01:37:53.285Z,17.83
2018-05-26T01:40:27.461Z,13.73
2018-05-26T01:42:56.532Z,13.97
2018-05-26T01:45:28.606Z,13.50
2018-05-26T01:47:57.669Z,14.93
2018-05-26T01:50:27.844Z,12.87
2018-05-26T01:52:56.889Z,13.77
2018-05-26T01:55:26.049Z,12.90
2018-05-26T01:57:55.105Z,10.73
2018-05-26T02:00:24.223Z,15.02
2018-05-26T02:02:53.344Z,12.73
2018-05-26T02:07:58.173Z,13.75
2018-05-26T02:14:08.691Z,12.00
2018-05-26T02:16:45.505Z,13.60
2018-05-26T02:19:16.841Z,12.60
2018-05-26T02:21:45.870Z,10.70
2018-05-26T02:24:15.818Z,11.40
2018-05-26T02:29:21.375Z,13.38
2018-05-26T02:31:50.442Z,12.77
2018-05-26T02:36:55.178Z,9.95
2018-05-26T02:42:00.170Z,11.07
2018-05-26T02:44:36.991Z,9.43
2018-05-26T02:47:08.110Z,21.87
2018-05-26T02:49:37.222Z,11.10
2018-05-26T02:54:52.861Z,11.18
2018-05-26T02:57:35.242Z,11.50
2018-05-26T03:00:04.482Z,9.90
2018-05-26T03:07:52.721Z,11.10
2018-05-26T03:10:27.199Z,11.40
2018-05-26T03:13:01.778Z,11.60
2018-05-26T03:15:34.370Z,11.82
2018-05-26T03:18:10.826Z,10.63
2018-05-26T03:20:47.094Z,11.53
2018-05-26T03:23:24.965Z,12.30
2018-05-26T03:25:54.035Z,12.20
2018-05-26T03:28:26.577Z,11.20
2018-05-26T03:30:56.579Z,14.70
2018-05-26T03:33:30.358Z,13.80
2018-05-26T03:36:00.326Z,13.73
2018-05-26T03:38:29.470Z,17.83
2018-05-26T03:40:58.753Z,15.33
2018-05-26T03:43:27.805Z,17.73
2018-05-26T03:45:56.895Z,13.80
2018-05-26T03:48:29.164Z,15.40
2018-05-26T03:50:58.429Z,13.93
2018-05-26T03:53:32.608Z,13.93
2018-05-26T03:56:19.469Z,12.40
2018-05-26T03:59:07.105Z,11.90
2018-05-26T04:01:36.198Z,14.20
2018-05-26T04:04:05.323Z,13.13
2018-05-26T04:06:42.465Z,11.67
2018-05-26T04:09:20.181Z,14.43
2018-05-26T04:11:49.388Z,13.33
2018-05-26T04:14:19.299Z,16.75
2018-05-26T04:16:48.350Z,16.13
2018-05-26T04:19:19.391Z,14.80
2018-05-26T04:21:49.162Z,14.60
2018-05-26T04:24:20.498Z,14.97
2018-05-26T04:26:49.549Z,13.97
2018-05-26T04:31:54.826Z,17.35
2018-05-26T04:34:25.838Z,18.55
2018-05-26T04:36:55.220Z,18.73
2018-05-26T04:39:27.252Z,18.00
2018-05-26T04:41:56.325Z,19.10
2018-05-26T04:44:29.805Z,18.13
2018-05-26T04:46:58.875Z,17.03
2018-05-26T04:49:32.581Z,20.30
2018-05-26T04:52:01.653Z,22.40
2018-05-26T04:54:31.556Z,19.47
2018-05-26T04:57:00.622Z,19.37
2018-05-26T04:59:31.697Z,18.43
2018-05-26T05:02:01.198Z,18.43
2018-05-26T05:04:34.572Z,18.23
2018-05-26T05:07:03.633Z,17.47
2018-05-26T05:12:09.888Z,22.77
2018-05-26T05:14:38.947Z,22.83
2018-05-26T05:17:08.068Z,20.20
2018-05-26T05:19:37.117Z,18.47
2018-05-26T05:24:41.979Z,21.77
2018-05-26T05:27:11.292Z,21.23
2018-05-26T05:29:40.475Z,23.42
2018-05-26T05:32:09.848Z,21.30
2018-05-26T05:34:39.979Z,20.57
2018-05-26T05:39:45.942Z,22.70
2018-05-26T05:42:19.493Z,19.20
2018-05-26T05:44:48.905Z,19.70
2018-05-26T05:47:22.922Z,19.60
2018-05-26T05:49:52.998Z,16.67
2018-05-26T05:52:22.042Z,17.10
2018-05-26T05:54:52.124Z,16.00
2018-05-26T05:57:22.134Z,14.80
2018-05-26T06:02:26.911Z,14.80
2018-05-26T06:04:56.443Z,13.80
2018-05-26T06:07:25.497Z,12.80
2018-05-26T06:09:54.553Z,12.80
2018-05-26T06:15:00.626Z,12.43
2018-05-26T06:17:29.614Z,11.83
2018-05-26T06:19:59.233Z,13.17
2018-05-26T06:22:28.281Z,10.97
2018-05-26T06:24:57.757Z,10.80
2018-05-26T06:27:26.825Z,9.73
2018-05-26T06:29:56.224Z,10.60
2018-05-26T06:32:25.291Z,11.93
2018-05-26T06:34:54.746Z,13.10
2018-05-26T06:37:23.802Z,16.58
2018-05-26T06:39:52.858Z,11.43
2018-05-26T06:42:22.263Z,10.07
2018-05-26T06:47:27.174Z,12.83
2018-05-26T06:49:56.206Z,12.17
2018-05-26T06:52:25.251Z,9.27
2018-05-26T06:54:54.307Z,7.70
2018-05-26T06:57:23.626Z,7.67
2018-05-26T07:05:04.338Z,18.05
2018-05-26T07:07:33.677Z,20.55
2018-05-26T07:10:02.744Z,17.83
2018-05-26T07:12:32.462Z,18.57
2018-05-26T07:15:01.550Z,18.90
2018-05-26T07:20:06.526Z,22.17
2018-05-26T07:22:36.466Z,23.27
2018-05-26T07:25:05.579Z,23.80
2018-05-26T07:27:35.129Z,21.40
2018-05-26T07:30:04.173Z,22.13
2018-05-26T07:32:33.853Z,19.60
2018-05-26T07:35:02.909Z,17.23
2018-05-26T07:37:32.062Z,16.07
2018-05-26T07:40:01.126Z,16.90
2018-05-26T07:42:30.202Z,15.80
2018-05-26T07:44:59.278Z,13.60
2018-05-26T07:47:28.297Z,14.77
2018-05-26T07:52:33.877Z,14.18
2018-05-26T07:55:02.930Z,15.03
2018-05-26T07:57:35.379Z,13.27
2018-05-26T08:00:06.099Z,15.95
2018-05-26T08:02:36.341Z,12.60
2018-05-26T08:07:41.266Z,14.60
2018-05-26T08:10:10.857Z,13.73
2018-05-26T08:12:41.267Z,14.10
2018-05-26T08:15:10.818Z,15.23
2018-05-26T08:17:40.439Z,14.93
2018-05-26T08:20:09.489Z,15.40
2018-05-26T08:22:39.616Z,14.00
2018-05-26T08:25:14.483Z,14.77
2018-05-26T08:27:43.539Z,10.80
2018-05-26T08:30:12.608Z,10.83
2018-05-26T08:32:42.182Z,10.97
2018-05-26T08:35:11.251Z,12.33
2018-05-26T08:37:40.829Z,11.63
2018-05-26T08:40:09.898Z,9.87
2018-05-26T08:42:39.293Z,10.47
2018-05-26T08:45:08.349Z,10.30
2018-05-26T08:47:37.585Z,10.23
2018-05-26T08:52:43.328Z,10.70
2018-05-26T08:55:12.341Z,10.93
2018-05-26T08:57:42.040Z,11.80
2018-05-26T09:00:11.116Z,10.37
2018-05-26T09:02:40.557Z,10.73
2018-05-26T09:05:09.600Z,10.83
2018-05-26T09:07:39.249Z,10.80
2018-05-26T09:10:08.281Z,11.30
2018-05-26T09:12:37.921Z,8.50
2018-05-26T09:15:06.969Z,9.88
2018-05-26T09:17:36.646Z,9.57
2018-05-26T09:22:41.519Z,10.20
2018-05-26T09:25:11.032Z,9.98
2018-05-26T09:27:40.044Z,7.57
2018-05-26T09:30:09.902Z,7.47
2018-05-26T09:35:15.164Z,7.82
2018-05-26T09:37:44.331Z,7.70
2018-05-26T09:42:50.054Z,6.72
2018-05-26T09:45:19.235Z,7.80
2018-05-26T09:47:49.775Z,6.00
2018-05-26T09:50:19.072Z,6.05
2018-05-26T09:52:49.409Z,5.20
2018-05-26T09:55:19.101Z,5.70
2018-05-26T09:57:49.297Z,5.30
2018-05-26T10:00:19.150Z,6.77
2018-05-26T10:02:56.425Z,5.25
2018-05-26T10:05:25.473Z,4.10
2018-05-26T10:07:56.504Z,4.43
2018-05-26T10:10:25.557Z,4.53
2018-05-26T10:12:54.767Z,4.90
2018-05-26T10:15:23.811Z,4.97
2018-05-26T10:17:53.228Z,5.28
2018-05-26T10:20:22.295Z,5.43
2018-05-26T10:22:52.165Z,5.07
2018-05-26T10:27:57.258Z,5.55
2018-05-26T10:30:26.304Z,4.85
2018-05-26T10:32:55.763Z,4.57
2018-05-26T10:35:24.793Z,4.80
2018-05-26T10:37:54.393Z,4.03
2018-05-26T10:40:23.575Z,3.10
2018-05-26T10:42:53.563Z,4.30
2018-05-26T10:45:39.467Z,3.70
2018-05-26T10:48:08.770Z,3.30
2018-05-26T10:50:37.789Z,3.50
2018-05-26T10:53:07.723Z,4.17
2018-05-26T10:55:36.765Z,3.40
2018-05-26T10:58:05.811Z,3.10
2018-05-26T11:00:34.862Z,3.80
2018-05-26T11:03:03.912Z,3.57
2018-05-26T11:05:32.953Z,3.80
2018-05-26T11:08:01.997Z,4.33
2018-05-26T11:10:32.509Z,4.03
2018-05-26T11:13:01.567Z,3.87
2018-05-26T11:15:31.336Z,3.90
2018-05-26T11:18:00.506Z,4.70
2018-05-26T11:20:29.517Z,3.50
2018-05-26T11:22:58.566Z,3.87
2018-05-26T11:25:28.136Z,3.30
2018-05-26T11:27:57.174Z,3.20
2018-05-26T11:30:26.643Z,3.70
2018-05-26T11:33:02.725Z,3.80
2018-05-26T11:35:40.884Z,3.77
2018-05-26T11:38:21.890Z,2.90
2018-05-26T11:41:01.958Z,3.80
2018-05-26T11:43:41.552Z,3.30
2018-05-26T11:46:11.386Z,3.50
2018-05-26T11:48:40.565Z,2.93
2018-05-26T11:51:09.618Z,4.63
2018-05-26T11:56:13.965Z,3.60
2018-05-26T11:58:43.960Z,3.07
2018-05-26T12:01:12.999Z,2.70
2018-05-26T12:03:42.793Z,4.30
2018-05-26T12:06:11.873Z,3.63
2018-05-26T12:08:41.693Z,4.93
2018-05-26T12:11:10.750Z,3.50
2018-05-26T12:13:39.791Z,3.15
2018-05-26T12:16:08.830Z,3.40
2018-05-26T12:18:38.351Z,3.20
2018-05-26T12:21:07.415Z,2.90
2018-05-26T12:23:36.473Z,3.40
2018-05-26T12:26:05.881Z,3.30
2018-05-26T12:28:35.211Z,3.37
2018-05-26T12:31:04.315Z,3.60
2018-05-26T12:33:34.146Z,3.90
2018-05-26T12:36:03.237Z,3.30
2018-05-26T12:38:32.890Z,3.60
2018-05-26T12:41:02.025Z,2.97
2018-05-26T12:43:31.062Z,2.90
2018-05-26T12:46:00.523Z,5.87
2018-05-26T12:48:29.581Z,2.40
2018-05-26T12:50:59.556Z,3.30
2018-05-26T12:53:28.605Z,2.80
2018-05-26T12:55:59.020Z,2.97
2018-05-26T13:01:04.320Z,3.10
2018-05-26T13:03:33.652Z,2.75
2018-05-26T13:06:03.323Z,2.50
2018-05-26T13:08:32.419Z,3.10
2018-05-26T13:11:02.029Z,2.60
2018-05-26T13:13:31.169Z,2.90
2018-05-26T13:16:00.910Z,2.30
2018-05-26T13:21:05.881Z,2.15
2018-05-26T13:23:34.973Z,3.20
2018-05-26T13:26:04.439Z,2.90
2018-05-26T13:28:33.481Z,3.17
2018-05-26T13:31:03.117Z,3.77
2018-05-26T13:36:08.279Z,3.05
2018-05-26T13:41:13.672Z,2.20
2018-05-26T13:43:42.710Z,1.90
2018-05-26T13:46:12.041Z,2.37
2018-05-26T13:48:41.093Z,2.53
2018-05-26T13:51:23.823Z,2.27
2018-05-26T13:54:04.729Z,2.30
2018-05-26T13:56:46.150Z,2.03
2018-05-26T14:02:14.919Z,1.83
2018-05-26T14:07:25.054Z,2.83
2018-05-26T14:12:33.855Z,2.20
2018-05-26T14:15:05.725Z,2.33
2018-05-26T14:17:37.771Z,1.70
2018-05-26T14:20:09.359Z,5.90
2018-05-26T14:22:42.013Z,2.00
2018-05-26T14:25:13.252Z,1.60
2018-05-26T14:27:45.284Z,1.80
2018-05-26T14:30:16.533Z,1.80
2018-05-26T14:32:48.746Z,3.63
2018-05-26T14:35:21.065Z,1.97
2018-05-26T14:37:53.179Z,2.08
2018-05-26T14:40:25.216Z,2.10
2018-05-26T14:42:57.703Z,1.98
2018-05-26T14:45:30.727Z,2.40
2018-05-26T14:50:40.399Z,2.60
2018-05-26T14:53:11.499Z,2.50
2018-05-26T14:55:44.962Z,2.83
2018-05-26T14:58:15.907Z,2.57
2018-05-26T15:00:47.749Z,3.57
2018-05-26T15:03:18.939Z,2.20
2018-05-26T15:05:47.989Z,2.43
2018-05-26T15:08:17.028Z,2.87
2018-05-26T15:10:46.081Z,2.83
2018-05-26T15:13:15.202Z,3.37
2018-05-26T15:15:44.174Z,3.10
2018-05-26T15:18:13.218Z,3.83
2018-05-26T15:20:42.337Z,2.40
2018-05-26T15:23:11.442Z,2.70
2018-05-26T15:25:40.530Z,2.40
2018-05-26T15:28:09.629Z,2.35
2018-05-26T15:30:38.770Z,2.47
2018-05-26T15:33:07.848Z,3.03
2018-05-26T15:35:36.895Z,2.58
2018-05-26T15:38:06.227Z,2.70
2018-05-26T15:40:35.371Z,3.30
2018-05-26T15:43:04.447Z,2.50
2018-05-26T15:48:09.388Z,2.33
2018-05-26T15:50:38.542Z,2.27
2018-05-26T15:53:07.634Z,2.10
2018-05-26T15:55:36.701Z,2.87
2018-05-26T15:58:05.756Z,10.87
2018-05-26T16:03:10.618Z,26.20
2018-05-26T16:05:40.199Z,36.90
2018-05-26T16:08:09.286Z,32.30
2018-05-26T16:10:38.399Z,38.77
2018-05-26T16:13:07.503Z,6.37
2018-05-26T16:15:36.579Z,12.87
2018-05-26T16:18:05.704Z,6.33
2018-05-26T16:20:34.765Z,4.10
2018-05-26T16:25:39.686Z,3.20
2018-05-26T16:28:09.751Z,3.93
2018-05-26T16:30:38.855Z,2.80
2018-05-26T16:33:07.955Z,14.90
2018-05-26T16:35:37.057Z,6.60
2018-05-26T16:38:06.098Z,4.87
2018-05-26T16:40:35.238Z,4.10
2018-05-26T16:43:04.286Z,3.17
2018-05-26T16:45:33.330Z,3.50
2018-05-26T16:48:02.483Z,3.20
2018-05-26T16:50:31.580Z,3.47
2018-05-26T16:53:00.608Z,3.40
2018-05-26T16:55:29.710Z,4.40
2018-05-26T16:57:58.728Z,2.77
2018-05-26T17:00:27.782Z,3.70
2018-05-26T17:02:56.822Z,4.60
2018-05-26T17:05:25.884Z,5.00
2018-05-26T17:07:54.967Z,4.57
2018-05-26T17:10:24.092Z,3.87
2018-05-26T17:12:53.214Z,4.10
2018-05-26T17:15:22.266Z,4.23
2018-05-26T17:17:51.370Z,5.30
2018-05-26T17:22:56.736Z,5.40
2018-05-26T17:28:01.605Z,4.70
2018-05-26T17:30:30.662Z,4.75
2018-05-26T17:32:59.716Z,4.63
2018-05-26T17:35:28.757Z,3.90
2018-05-26T17:37:57.825Z,4.80
2018-05-26T17:40:26.879Z,4.50
2018-05-26T17:42:55.924Z,6.23
2018-05-26T17:45:24.961Z,7.07
2018-05-26T17:47:54.005Z,5.53
2018-05-26T17:50:23.061Z,6.70
2018-05-26T17:52:52.098Z,3.70
2018-05-26T17:55:21.153Z,3.80
2018-05-26T17:57:50.199Z,4.10
2018-05-26T18:00:19.601Z,4.27
2018-05-26T18:02:49.534Z,5.60
2018-05-26T18:05:19.377Z,3.93
2018-05-26T18:07:48.394Z,4.00
2018-05-26T18:10:18.766Z,4.67
2018-05-26T18:12:47.811Z,5.33
2018-05-26T18:15:18.120Z,5.23
2018-05-26T18:17:47.189Z,6.80
2018-05-26T18:20:16.490Z,4.68
2018-05-26T18:22:45.517Z,3.67
2018-05-26T18:25:14.783Z,4.00
2018-05-26T18:27:43.843Z,5.10
2018-05-26T18:30:12.891Z,7.00
2018-05-26T18:32:41.992Z,4.17
2018-05-26T18:35:11.001Z,5.93
2018-05-26T18:37:40.054Z,5.60
2018-05-26T18:40:09.542Z,11.67
2018-05-26T18:47:50.396Z,5.18
2018-05-26T18:50:21.798Z,5.37
2018-05-26T18:52:50.890Z,5.40
2018-05-26T18:55:20.920Z,4.80
2018-05-26T18:57:49.998Z,6.97
2018-05-26T19:00:20.803Z,4.50
2018-05-26T19:02:49.856Z,5.10
2018-05-26T19:07:55.673Z,4.68
2018-05-26T19:10:27.875Z,5.67
2018-05-26T19:12:56.938Z,6.10
2018-05-26T19:20:56.566Z,10.77
2018-05-26T19:23:25.772Z,8.00
2018-05-26T19:25:54.831Z,9.43
2018-05-26T19:28:28.740Z,6.00
2018-05-26T19:30:57.878Z,6.73
2018-05-26T19:33:27.118Z,5.80
2018-05-26T19:35:56.244Z,6.10
2018-05-26T19:38:32.105Z,6.17
2018-05-26T19:41:18.320Z,6.20
2018-05-26T19:43:55.973Z,5.97
2018-05-26T19:46:47.023Z,11.27
2018-05-26T19:49:28.004Z,7.23
2018-05-26T19:52:19.774Z,6.87
2018-05-26T19:55:01.237Z,7.47
2018-05-26T19:57:51.903Z,7.40
2018-05-26T20:00:35.666Z,9.07
2018-05-26T20:05:50.295Z,10.45
2018-05-26T20:13:50.502Z,6.03
2018-05-26T20:16:30.589Z,6.73
2018-05-26T20:19:12.258Z,6.63
2018-05-26T20:21:53.214Z,7.53
2018-05-26T20:24:41.227Z,8.40
2018-05-26T20:30:00.289Z,9.48
2018-05-26T20:32:46.261Z,7.80
2018-05-26T20:35:23.352Z,7.97
2018-05-26T20:38:00.028Z,9.57
2018-05-26T20:40:36.592Z,10.50
2018-05-26T20:45:52.144Z,14.93
2018-05-26T20:51:26.312Z,17.00
2018-05-26T20:54:09.856Z,11.90
2018-05-26T20:56:51.791Z,10.63
2018-05-26T20:59:31.129Z,8.93
2018-05-26T21:02:13.716Z,7.23
2018-05-26T21:04:57.840Z,6.00
2018-05-26T21:07:41.435Z,6.80
2018-05-26T21:10:10.739Z,8.03
2018-05-26T21:12:39.946Z,7.23
2018-05-26T21:15:11.285Z,9.37
2018-05-26T21:17:40.319Z,8.93
2018-05-26T21:20:09.436Z,8.70
2018-05-26T21:25:19.910Z,9.00
2018-05-26T21:27:49.944Z,7.60
2018-05-26T21:30:29.397Z,7.73
2018-05-26T21:32:58.935Z,7.40
2018-05-26T21:35:37.244Z,6.70
2018-05-26T21:38:10.085Z,6.53
2018-05-26T21:40:39.434Z,8.10
2018-05-26T21:43:08.868Z,7.80
2018-05-26T21:45:39.851Z,9.83
2018-05-26T21:48:12.531Z,11.03
2018-05-26T21:50:41.763Z,12.37
2018-05-26T21:53:11.077Z,13.00
2018-05-26T21:55:40.269Z,11.30
2018-05-26T22:00:45.641Z,10.13
2018-05-26T22:05:51.043Z,11.40
2018-05-26T22:08:20.054Z,9.70
2018-05-26T22:10:49.129Z,9.23
2018-05-26T22:13:36.185Z,8.53
2018-05-26T22:16:05.262Z,9.77
2018-05-26T22:18:35.281Z,8.53
2018-05-26T22:21:04.349Z,8.53
2018-05-26T22:23:36.874Z,8.87
2018-05-26T22:26:05.920Z,8.77
2018-05-26T22:28:40.657Z,9.43
2018-05-26T22:31:09.732Z,9.03
2018-05-26T22:36:14.770Z,9.52
2018-05-26T22:38:45.950Z,9.47
2018-05-26T22:41:15.126Z,12.53
2018-05-26T22:44:02.658Z,14.45
2018-05-26T22:46:31.741Z,13.20
2018-05-26T22:49:00.830Z,13.47
2018-05-26T22:54:06.125Z,13.13
2018-05-26T22:56:35.575Z,13.48
2018-05-26T22:59:04.618Z,13.70
2018-05-26T23:01:33.687Z,17.70
2018-05-26T23:04:02.765Z,17.35
2018-05-26T23:06:32.750Z,16.23
2018-05-26T23:09:01.831Z,11.67
2018-05-26T23:11:30.923Z,10.53
2018-05-26T23:14:00.931Z,9.37
2018-05-26T23:16:33.307Z,8.93
2018-05-26T23:19:02.360Z,7.60
2018-05-26T23:21:40.246Z,8.83
2018-05-26T23:24:09.331Z,10.32
2018-05-26T23:26:42.006Z,8.17
2018-05-26T23:29:11.091Z,7.67
2018-05-26T23:34:16.550Z,8.80
2018-05-26T23:36:51.069Z,9.13
2018-05-26T23:39:21.470Z,6.80
2018-05-26T23:41:51.443Z,8.10
2018-05-26T23:44:25.981Z,8.70
2018-05-26T23:46:55.085Z,8.63
2018-05-26T23:49:26.001Z,9.77
2018-05-26T23:54:36.286Z,10.13
2018-05-26T23:57:05.337Z,9.95
2018-05-26T23:59:35.321Z,8.33
